Time;durP1;ratioP1;P1;durP2;ratioP2;P2;SDS_P1;SDS_P2;PMS_P1;PMS_P2;Temp;Humidity;BMP_temperature;BMP_pressure;BME280_temperature;BME280_humidity;BME280_pressure;Samples;Min_cycle;Max_cycle;Signal;HPM_P1;HPM_P2
2022/06/24 00:02:21;;;;;;;5.90;4.30;;;;;;;15.58;61.65;98600.45;220570;1270;24221;-69
2022/06/24 00:07:28;;;;;;;5.30;4.60;;;;;;;15.51;61.76;98596.95;220507;1270;22613;-68
2022/06/24 00:12:35;;;;;;;7.30;4.80;;;;;;;15.45;62.26;98596.53;220495;1270;25137;-69
2022/06/24 00:17:41;;;;;;;7.50;4.70;;;;;;;15.37;62.54;98596.83;220348;1270;310625;-69
2022/06/24 00:23:13;;;;;;;5.50;4.70;;;;;;;15.29;63.06;98595.12;220356;1270;25401;-68
2022/06/24 00:28:26;;;;;;;6.20;4.60;;;;;;;15.21;63.21;98600.30;220579;1271;22561;-69
2022/06/24 00:39:34;;;;;;;7.00;4.70;;;;;;;15.02;63.53;98604.00;220388;1270;26409;-69
2022/06/24 00:45:09;;;;;;;5.10;4.60;;;;;;;14.89;63.90;98598.98;220562;1270;22527;-70
2022/06/24 00:50:31;;;;;;;6.90;4.80;;;;;;;14.77;64.35;98595.63;220409;1271;22683;-68
2022/06/24 00:55:48;;;;;;;5.20;4.70;;;;;;;14.66;64.78;98595.64;220620;1270;22539;-68
2022/06/24 01:00:51;;;;;;;8.80;5.10;;;;;;;14.58;65.16;98591.84;220618;1268;22530;-70
2022/06/24 01:05:56;;;;;;;8.40;4.60;;;;;;;14.50;65.39;98586.44;220477;1270;22573;-68
2022/06/24 01:16:49;;;;;;;6.90;4.80;;;;;;;14.36;66.15;98575.13;220462;1271;22715;-68
2022/06/24 01:21:57;;;;;;;6.90;4.70;;;;;;;14.33;66.25;98570.77;220802;1270;24263;-68
2022/06/24 01:27:01;;;;;;;5.90;4.70;;;;;;;14.30;66.44;98569.93;220849;1271;22611;-68
2022/06/24 01:32:04;;;;;;;6.30;4.80;;;;;;;14.26;66.62;98566.29;220801;1271;22531;-68
2022/06/24 01:37:41;;;;;;;5.60;4.50;;;;;;;14.22;67.15;98562.36;220892;1270;22793;-69
2022/06/24 01:48:38;;;;;;;5.00;4.50;;;;;;;14.13;67.23;98548.20;220803;1271;22553;-67
2022/06/24 01:54:21;;;;;;;;;;;;;;;;;;;;;
2022/06/24 01:59:29;;;;;;;5.70;4.70;;;;;;;14.07;67.71;98546.67;221111;1271;25329;-68
2022/06/24 02:04:36;;;;;;;5.60;4.10;;;;;;;14.03;67.72;98545.96;221031;1271;24543;-70
2022/06/24 02:15:37;;;;;;;4.90;4.00;;;;;;;13.94;67.96;98531.94;221074;1271;22567;-68
2022/06/24 02:21:14;;;;;;;4.60;4.20;;;;;;;13.90;68.04;98534.05;220896;1271;22599;-68
2022/06/24 02:26:25;;;;;;;6.00;4.70;;;;;;;13.87;68.19;98537.25;220914;1271;22550;-69
2022/06/24 02:31:28;;;;;;;5.10;4.60;;;;;;;13.86;68.43;98532.91;220647;1272;22705;-68
2022/06/24 02:36:37;;;;;;;7.80;4.50;;;;;;;13.86;68.69;98534.14;221099;1269;22916;-68
2022/06/24 02:41:45;;;;;;;5.90;4.10;;;;;;;13.85;68.59;98531.96;221169;1268;22545;-69
2022/06/24 02:47:00;;;;;;;4.80;4.20;;;;;;;13.85;68.77;98531.16;220977;1271;22628;-68
2022/06/24 02:52:06;;;;;;;6.50;4.80;;;;;;;13.84;68.80;98536.45;220693;1271;22747;-68
2022/06/24 02:57:23;;;;;;;6.10;4.50;;;;;;;13.85;68.96;98540.58;220879;1271;22530;-68
2022/06/24 03:02:31;;;;;;;6.50;4.70;;;;;;;13.86;69.16;98538.39;220867;1268;23826;-68
2022/06/24 03:07:34;;;;;;;7.10;4.60;;;;;;;13.88;69.14;98538.58;220853;1271;25359;-68
2022/06/24 03:12:52;;;;;;;5.20;4.60;;;;;;;13.92;69.07;98541.54;220988;1271;22537;-71
2022/06/24 03:18:23;;;;;;;5.30;4.50;;;;;;;13.98;69.26;98544.38;220679;1272;22542;-69
2022/06/24 03:24:15;;;;;;;5.60;4.60;;;;;;;14.29;69.19;98544.63;220535;1272;22563;-68
2022/06/24 03:29:27;;;;;;;6.50;4.60;;;;;;;14.80;68.60;98544.05;220520;1271;24193;-68
2022/06/24 03:34:33;;;;;;;4.10;3.70;;;;;;;15.31;67.79;98542.40;220041;1271;24223;-70
2022/06/24 03:39:41;;;;;;;4.60;3.60;;;;;;;15.83;66.94;98543.00;221041;1268;22588;-68
2022/06/24 03:44:43;;;;;;;4.30;3.90;;;;;;;16.26;65.70;98542.20;220658;1271;22532;-70
2022/06/24 03:49:51;;;;;;;5.60;3.90;;;;;;;16.63;64.82;98540.73;220837;1268;24279;-68
2022/06/24 03:54:53;;;;;;;6.00;3.90;;;;;;;16.97;63.96;98543.77;220480;1270;22570;-67
2022/06/24 03:59:55;;;;;;;7.30;3.90;;;;;;;17.30;63.05;98544.77;220967;1268;22652;-68
2022/06/24 04:04:58;;;;;;;4.40;3.40;;;;;;;17.59;62.30;98548.36;220350;1271;24113;-68
2022/06/24 04:10:00;;;;;;;4.00;3.50;;;;;;;17.90;61.61;98554.00;220524;1271;22828;-68
2022/06/24 04:15:19;;;;;;;;;;;;;;;18.08;61.18;98550.84;220601;1271;25361;-67
2022/06/24 04:20:31;;;;;;;4.80;3.90;;;;;;;18.10;60.89;98555.69;220571;1271;22561;-67
2022/06/24 04:31:04;;;;;;;5.80;3.80;;;;;;;17.91;60.76;98556.84;220662;1268;22557;-68
2022/06/24 04:36:15;;;;;;;5.70;3.70;;;;;;;17.78;60.84;98562.23;220684;1271;22582;-68
2022/06/24 04:41:20;;;;;;;4.40;3.60;;;;;;;17.66;61.13;98565.91;220339;1268;22607;-68
2022/06/24 04:46:23;;;;;;;5.50;3.80;;;;;;;17.60;61.43;98568.77;220681;1268;22785;-68
2022/06/24 04:51:28;;;;;;;4.70;3.90;;;;;;;17.56;61.63;98569.02;220237;1268;25255;-68
2022/06/24 04:56:31;;;;;;;5.30;3.60;;;;;;;17.61;61.78;98566.59;220251;1270;25365;-68
2022/06/24 05:01:43;;;;;;;5.40;3.30;;;;;;;17.74;61.95;98571.79;220083;1268;23807;-68
2022/06/24 05:06:51;;;;;;;3.30;3.00;;;;;;;17.93;61.87;98566.80;220206;1270;25372;-68
2022/06/24 05:11:53;;;;;;;4.30;3.00;;;;;;;18.16;61.60;98573.58;220325;1271;25419;-69
2022/06/24 05:16:57;;;;;;;4.90;3.30;;;;;;;18.34;61.02;98572.91;220634;1271;24400;-68
2022/06/24 05:22:00;;;;;;;4.50;3.60;;;;;;;18.54;60.92;98569.66;220525;1271;22576;-69
2022/06/24 05:27:03;;;;;;;4.30;3.00;;;;;;;18.74;60.46;98569.11;220136;1268;22543;-69
2022/06/24 05:32:08;;;;;;;5.50;3.40;;;;;;;18.97;60.00;98570.88;220220;1270;22621;-68
2022/06/24 05:37:14;;;;;;;3.50;3.10;;;;;;;19.19;59.38;98568.72;220546;1268;22549;-68
2022/06/24 05:42:16;;;;;;;4.60;2.90;;;;;;;19.43;58.64;98571.14;220119;1270;22620;-68
2022/06/24 05:47:39;;;;;;;4.40;3.20;;;;;;;19.66;57.60;98573.63;220395;1268;22549;-68
2022/06/24 05:58:46;;;;;;;5.30;2.80;;;;;;;20.14;56.57;98577.23;220437;1268;24164;-68
2022/06/24 06:03:49;;;;;;;8.30;2.90;;;;;;;20.32;55.92;98578.05;220352;1268;24231;-69
2022/06/24 06:08:51;;;;;;;6.70;3.70;;;;;;;20.51;55.30;98579.75;220369;1268;22527;-69
2022/06/24 06:13:56;;;;;;;10.60;3.50;;;;;;;20.68;54.91;98578.45;220244;1268;24743;-68
2022/06/24 06:19:39;;;;;;;5.80;3.20;;;;;;;20.90;54.50;98578.22;220320;1268;25307;-67
2022/06/24 06:24:44;;;;;;;4.80;3.40;;;;;;;21.09;53.71;98578.87;219920;1270;25361;-67
2022/06/24 06:29:49;;;;;;;7.80;3.40;;;;;;;21.25;53.14;98580.91;220709;1267;22690;-69
2022/06/24 06:34:52;;;;;;;4.70;3.30;;;;;;;21.42;52.89;98577.52;220640;1267;22973;-67
2022/06/24 06:40:01;;;;;;;6.20;3.70;;;;;;;21.62;52.65;98579.73;220475;1268;23065;-67
2022/06/24 06:45:07;;;;;;;4.80;3.60;;;;;;;21.83;52.37;98584.93;220318;1268;25335;-68
2022/06/24 06:50:12;;;;;;;3.90;3.20;;;;;;;22.02;51.81;98579.05;220312;1267;22551;-68
2022/06/24 06:55:15;;;;;;;4.00;3.40;;;;;;;22.23;51.53;98574.29;219818;1270;22752;-68
2022/06/24 07:00:18;;;;;;;8.10;3.80;;;;;;;22.46;50.82;98574.29;219879;1270;25421;-68
2022/06/24 07:05:21;;;;;;;4.30;3.20;;;;;;;22.68;50.50;98572.64;220687;1268;22539;-68
2022/06/24 07:10:43;;;;;;;5.20;3.40;;;;;;;22.94;50.02;98570.95;220742;1268;22528;-69
2022/06/24 07:15:45;;;;;;;5.80;3.80;;;;;;;23.17;49.59;98572.74;220622;1268;26565;-69
2022/06/24 07:20:48;;;;;;;5.50;3.60;;;;;;;23.36;49.33;98567.11;220483;1268;22529;-68
2022/06/24 07:25:51;;;;;;;4.90;3.40;;;;;;;23.64;48.09;98567.61;220583;1268;25402;-68
2022/06/24 07:30:53;;;;;;;4.80;3.50;;;;;;;23.88;47.31;98568.70;220261;1268;23142;-68
2022/06/24 07:36:07;;;;;;;6.00;5.00;;;;;;;24.05;47.21;98555.98;219997;1268;25529;-68
2022/06/24 07:41:09;;;;;;;4.30;3.60;;;;;;;24.26;46.28;98555.76;219985;1270;26510;-68
2022/06/24 07:46:12;;;;;;;6.40;3.70;;;;;;;24.43;45.68;98548.38;220296;1268;25358;-67
2022/06/24 07:51:16;;;;;;;4.20;3.40;;;;;;;24.65;45.36;98544.61;220558;1268;24305;-68
2022/06/24 08:01:42;;;;;;;7.20;4.40;;;;;;;25.03;44.03;98533.61;220342;1268;22569;-68
2022/06/24 08:06:52;;;;;;;5.10;3.40;;;;;;;25.14;43.35;98531.03;220131;1268;26762;-68
2022/06/24 08:11:55;;;;;;;4.90;3.60;;;;;;;25.26;42.64;98530.23;220211;1268;25453;-69
2022/06/24 08:16:58;;;;;;;3.50;3.00;;;;;;;25.40;42.03;98526.96;220457;1268;22632;-68
2022/06/24 08:22:04;;;;;;;4.20;3.20;;;;;;;25.51;41.34;98530.79;220516;1270;26470;-67
2022/06/24 08:27:09;;;;;;;4.80;3.90;;;;;;;25.60;41.59;98525.90;220702;1267;24223;-69
2022/06/24 08:32:13;;;;;;;5.00;3.60;;;;;;;25.78;41.44;98521.39;220500;1268;22608;-68
2022/06/24 08:37:15;;;;;;;4.70;3.70;;;;;;;25.95;41.03;98519.05;220087;1268;23621;-67
2022/06/24 08:42:19;;;;;;;4.50;4.10;;;;;;;26.11;40.60;98519.17;220094;1267;22804;-69
2022/06/24 08:47:35;;;;;;;4.20;3.20;;;;;;;26.27;39.96;98517.52;220617;1268;25447;-69
2022/06/24 08:52:49;;;;;;;4.00;3.70;;;;;;;26.38;39.54;98513.16;219989;1268;25364;-68
2022/06/24 08:57:57;;;;;;;5.90;3.30;;;;;;;26.53;40.26;98508.89;220646;1268;25252;-69
2022/06/24 09:03:01;;;;;;;4.70;3.40;;;;;;;26.70;39.67;98507.45;220532;1268;22593;-69
2022/06/24 09:08:10;;;;;;;3.80;3.40;;;;;;;26.90;39.12;98508.98;219820;1268;22522;-70
2022/06/24 09:13:44;;;;;;;4.40;4.00;;;;;;;27.05;39.06;98503.52;220638;1268;24337;-69
2022/06/24 09:18:56;;;;;;;7.00;3.80;;;;;;;27.23;39.30;98503.26;220438;1270;22570;-69
2022/06/24 09:24:01;;;;;;;4.90;3.40;;;;;;;27.37;38.37;98502.21;220173;1270;24791;-69
2022/06/24 09:29:13;;;;;;;5.70;3.30;;;;;;;27.42;37.92;98494.70;219873;1268;22951;-70
2022/06/24 09:34:18;;;;;;;3.20;2.90;;;;;;;27.45;37.59;98488.54;220600;1266;25377;-70
2022/06/24 09:39:22;;;;;;;3.30;3.00;;;;;;;27.46;37.06;98489.39;219958;1268;26518;-70
2022/06/24 09:44:45;;;;;;;7.50;6.80;;;;;;;27.54;37.65;98494.58;220501;1268;24147;-70
2022/06/24 09:49:55;;;;;;;3.70;3.20;;;;;;;27.69;36.49;98484.97;220629;1268;25375;-70
2022/06/24 09:55:02;;;;;;;4.00;2.90;;;;;;;27.66;36.35;98488.39;220216;1270;25368;-69
2022/06/24 10:05:40;;;;;;;5.80;2.90;;;;;;;27.96;36.53;98484.56;220043;1270;25250;-69
2022/06/24 10:10:58;;;;;;;4.30;3.20;;;;;;;28.18;35.88;98481.88;220576;1269;22576;-69
2022/06/24 10:16:07;;;;;;;6.40;3.60;;;;;;;28.34;36.09;98481.10;221561;1268;25358;-69
2022/06/24 10:21:22;;;;;;;4.20;3.90;;;;;;;28.47;36.02;98472.96;220078;1269;22543;-69
2022/06/24 10:26:41;;;;;;;4.40;3.20;;;;;;;28.59;35.67;98466.02;220679;1268;22791;-70
2022/06/24 10:32:00;;;;;;;4.90;3.60;;;;;;;28.79;35.80;98462.72;220626;1268;22617;-69
2022/06/24 10:37:16;;;;;;;3.30;3.00;;;;;;;28.91;35.27;98454.96;220453;1270;24237;-69
2022/06/24 10:42:22;;;;;;;4.50;3.30;;;;;;;29.07;35.51;98448.92;220765;1270;22715;-69
2022/06/24 10:47:29;;;;;;;3.50;3.10;;;;;;;29.24;34.95;98443.98;220473;1268;22564;-69
2022/06/24 10:52:37;;;;;;;3.70;3.10;;;;;;;29.38;34.84;98440.73;220845;1270;25348;-69
2022/06/24 10:57:39;;;;;;;4.70;3.50;;;;;;;29.52;34.68;98433.69;220334;1268;23001;-71
2022/06/24 11:02:43;;;;;;;4.50;3.40;;;;;;;29.56;34.32;98422.80;220021;1270;22596;-69
2022/06/24 11:07:48;;;;;;;3.90;3.50;;;;;;;29.55;34.27;98426.13;220768;1268;23097;-71
2022/06/24 11:12:54;;;;;;;4.50;4.10;;;;;;;29.58;34.37;98415.98;221865;1268;23468;-72
2022/06/24 11:17:57;;;;;;;4.80;3.40;;;;;;;29.62;34.28;98413.06;221780;1268;24251;-72
2022/06/24 11:22:59;;;;;;;4.30;3.90;;;;;;;29.73;34.61;98409.20;221939;1268;22583;-72
2022/06/24 11:28:02;;;;;;;3.80;3.40;;;;;;;29.86;34.24;98401.55;221681;1270;25252;-71
2022/06/24 11:33:05;;;;;;;4.10;3.70;;;;;;;30.04;34.42;98397.92;221748;1268;22633;-71
2022/06/24 11:38:09;;;;;;;3.40;3.10;;;;;;;30.23;33.98;98391.22;221932;1268;22591;-71
2022/06/24 11:43:23;;;;;;;3.40;3.20;;;;;;;30.30;32.96;98383.59;221650;1268;25463;-71
2022/06/24 11:48:45;;;;;;;4.60;3.20;;;;;;;30.24;33.17;98377.41;221947;1268;22715;-71
2022/06/24 11:54:08;;;;;;;3.70;3.30;;;;;;;30.32;33.36;98374.93;221796;1268;22622;-72
2022/06/24 11:59:14;;;;;;;3.40;2.90;;;;;;;30.42;32.44;98378.88;222033;1268;22563;-71
2022/06/24 12:04:23;;;;;;;3.70;3.40;;;;;;;30.32;32.52;98374.30;221722;1270;22786;-71
2022/06/24 12:09:31;;;;;;;3.90;2.50;;;;;;;30.43;32.74;98368.98;222241;1268;22522;-72
2022/06/24 12:14:33;;;;;;;3.30;3.00;;;;;;;30.47;31.46;98360.55;221954;1268;556045;-71
2022/06/24 12:19:54;;;;;;;3.50;3.10;;;;;;;30.48;31.75;98361.45;221673;1270;23854;-71
2022/06/24 12:25:02;;;;;;;3.40;2.90;;;;;;;30.63;31.64;98351.83;222018;1268;22579;-71
2022/06/24 12:30:07;;;;;;;3.00;2.80;;;;;;;30.75;31.02;98352.18;221604;1270;22586;-70
2022/06/24 12:35:12;;;;;;;3.80;2.70;;;;;;;30.77;31.03;98353.69;221882;1268;22573;-71
2022/06/24 12:40:23;;;;;;;3.60;2.90;;;;;;;30.83;30.73;98351.88;221577;1268;24638;-71
2022/06/24 12:45:25;;;;;;;3.10;2.90;;;;;;;30.73;30.46;98344.16;221479;1270;24225;-71
2022/06/24 12:50:38;;;;;;;4.00;2.90;;;;;;;30.78;30.85;98333.46;222045;1268;25427;-71
2022/06/24 12:55:49;;;;;;;4.90;3.20;;;;;;;30.81;30.43;98324.19;221880;1268;25467;-71
2022/06/24 13:00:55;;;;;;;5.20;4.70;;;;;;;30.77;30.25;98318.83;221665;1270;23807;-72
2022/06/24 13:06:05;;;;;;;4.60;3.10;;;;;;;30.64;31.36;98319.66;221705;1270;22608;-71
2022/06/24 13:11:07;;;;;;;3.50;3.20;;;;;;;30.52;31.60;98310.10;221848;1268;22622;-71
2022/06/24 13:16:12;;;;;;;4.70;3.80;;;;;;;30.63;31.39;98301.78;221899;1268;22575;-69
2022/06/24 13:21:15;;;;;;;3.70;3.40;;;;;;;30.68;30.74;98290.27;220585;1270;25320;-69
2022/06/24 13:26:20;;;;;;;3.60;3.30;;;;;;;30.60;31.07;98286.55;220459;1270;24257;-70
2022/06/24 13:31:24;;;;;;;3.60;3.10;;;;;;;30.62;31.35;98289.23;221823;1270;25474;-70
2022/06/24 13:36:27;;;;;;;5.00;3.30;;;;;;;30.57;31.15;98283.77;221853;1268;22635;-70
2022/06/24 13:41:32;;;;;;;6.80;3.60;;;;;;;30.49;31.00;98281.30;221791;1270;23296;-71
2022/06/24 13:46:38;;;;;;;11.60;10.60;;;;;;;30.55;31.39;98278.54;221883;1270;22584;-70
2022/06/24 13:51:40;;;;;;;3.70;3.40;;;;;;;30.77;31.80;98275.02;222150;1268;24614;-67
2022/06/24 13:56:42;;;;;;;3.60;3.40;;;;;;;31.04;31.28;98270.71;219897;1269;25332;-68
2022/06/24 14:01:44;;;;;;;3.50;3.20;;;;;;;31.21;30.41;98254.97;220051;1268;22530;-69
2022/06/24 14:07:06;;;;;;;4.50;3.00;;;;;;;31.43;30.96;98254.56;220404;1270;24349;-68
2022/06/24 14:12:09;;;;;;;3.60;3.30;;;;;;;31.62;30.77;98249.09;220418;1270;25293;-69
2022/06/24 14:17:12;;;;;;;4.30;3.80;;;;;;;31.67;29.87;98248.70;220876;1268;24251;-68
2022/06/24 14:22:34;;;;;;;3.40;3.10;;;;;;;31.59;29.81;98241.27;219991;1270;25361;-69
2022/06/24 14:27:36;;;;;;;3.30;3.00;;;;;;;31.64;29.95;98238.29;220982;1269;24222;-68
2022/06/24 14:32:38;;;;;;;3.80;3.50;;;;;;;31.39;29.68;98236.26;220524;1268;25357;-68
2022/06/24 14:43:04;;;;;;;3.30;2.90;;;;;;;31.14;30.05;98223.09;220469;1268;24326;-69
2022/06/24 14:48:07;;;;;;;3.20;2.90;;;;;;;31.27;29.88;98214.98;220247;1270;24217;-68
2022/06/24 14:53:09;;;;;;;3.10;2.80;;;;;;;31.35;29.44;98211.09;220626;1270;22541;-68
2022/06/24 14:58:12;;;;;;;3.40;3.10;;;;;;;31.51;29.83;98205.28;220453;1270;22702;-69
2022/06/24 15:03:29;;;;;;;4.00;3.00;;;;;;;31.68;29.38;98203.90;220834;1270;25358;-69
2022/06/24 15:08:36;;;;;;;3.60;3.30;;;;;;;31.75;29.26;98195.69;220569;1270;22655;-69
2022/06/24 15:13:46;;;;;;;3.20;3.00;;;;;;;31.76;29.37;98193.35;220985;1268;24269;-68
2022/06/24 15:19:07;;;;;;;3.80;3.20;;;;;;;31.63;29.37;98186.72;220849;1270;22541;-68
2022/06/24 15:24:09;;;;;;;3.40;3.10;;;;;;;31.38;29.84;98178.89;220494;1270;22720;-68
2022/06/24 15:29:12;;;;;;;3.60;3.30;;;;;;;31.32;30.13;98181.92;220667;1268;25276;-69
2022/06/24 15:34:15;;;;;;;3.50;3.20;;;;;;;31.50;30.04;98178.52;220248;1270;23001;-68
2022/06/24 15:39:17;;;;;;;3.20;3.00;;;;;;;31.67;29.85;98173.17;220203;1270;25414;-69
2022/06/24 15:44:20;;;;;;;3.50;3.10;;;;;;;31.68;29.82;98167.20;220434;1268;25372;-67
2022/06/24 15:49:22;;;;;;;4.20;3.20;;;;;;;31.53;29.68;98166.95;220667;1267;23175;-71
2022/06/24 15:54:25;;;;;;;3.90;3.60;;;;;;;31.36;30.11;98160.68;220584;1270;23408;-68
2022/06/24 15:59:27;;;;;;;3.40;3.20;;;;;;;31.26;29.91;98155.65;220191;1270;22582;-69
2022/06/24 16:04:32;;;;;;;4.10;3.00;;;;;;;31.16;29.85;98155.30;220106;1270;24431;-69
2022/06/24 16:09:35;;;;;;;3.30;3.00;;;;;;;31.08;29.99;98156.58;220272;1270;22534;-68
2022/06/24 16:14:38;;;;;;;3.00;2.80;;;;;;;30.94;30.16;98153.27;220299;1270;25244;-70
2022/06/24 16:19:40;;;;;;;3.60;3.30;;;;;;;30.78;30.42;98148.52;220615;1270;23283;-69
2022/06/24 16:30:30;;;;;;;3.20;2.90;;;;;;;30.53;30.49;98140.96;220350;1270;24346;-68
2022/06/24 16:35:34;;;;;;;3.60;3.10;;;;;;;30.38;30.68;98136.88;220287;1270;22557;-69
2022/06/24 16:40:36;;;;;;;3.50;2.70;;;;;;;30.18;30.75;98137.88;220061;1271;22577;-68
2022/06/24 16:45:38;;;;;;;3.40;2.80;;;;;;;30.04;31.26;98138.27;220546;1270;24281;-68
2022/06/24 16:50:57;;;;;;;7.30;3.10;;;;;;;29.89;31.54;98138.12;220262;1268;22588;-70
2022/06/24 16:56:08;;;;;;;3.80;3.00;;;;;;;29.77;31.55;98143.83;220096;1271;22605;-68
2022/06/24 17:01:17;;;;;;;4.40;3.70;;;;;;;29.71;31.64;98146.66;220102;1270;24383;-71
2022/06/24 17:06:19;;;;;;;3.40;3.10;;;;;;;29.67;32.01;98152.77;220280;1271;22618;-69
2022/06/24 17:11:22;;;;;;;3.30;3.00;;;;;;;29.98;32.39;98148.34;220895;1268;25345;-69
2022/06/24 17:16:24;;;;;;;3.30;3.00;;;;;;;31.02;32.05;98150.58;220309;1268;22558;-69
2022/06/24 17:21:27;;;;;;;3.50;3.20;;;;;;;32.27;31.15;98158.08;219994;1270;23810;-69
2022/06/24 17:26:29;;;;;;;2.70;2.40;;;;;;;32.87;29.77;98163.74;220025;1270;22575;-70
2022/06/24 17:31:52;;;;;;;3.20;2.80;;;;;;;33.23;29.21;98168.32;220278;1270;25345;-70
2022/06/24 17:36:58;;;;;;;2.70;2.50;;;;;;;32.94;28.78;98168.71;220107;1270;22541;-68
2022/06/24 17:42:00;;;;;;;3.40;3.10;;;;;;;32.04;29.44;98168.51;220718;1270;22553;-68
2022/06/24 17:47:03;;;;;;;3.60;3.00;;;;;;;31.07;30.31;98164.97;220043;1270;24432;-69
2022/06/24 17:52:06;;;;;;;4.50;3.40;;;;;;;30.26;31.18;98161.66;220213;1268;22692;-68
2022/06/24 17:57:08;;;;;;;5.30;3.10;;;;;;;29.54;32.08;98162.38;220518;1268;22569;-69
2022/06/24 18:02:10;;;;;;;2.90;2.70;;;;;;;28.81;33.33;98163.20;220862;1268;24848;-67
2022/06/24 18:07:13;;;;;;;2.90;2.60;;;;;;;28.19;34.12;98161.50;220578;1270;22532;-69
2022/06/24 18:12:15;;;;;;;3.10;2.80;;;;;;;27.62;35.21;98158.54;220704;1270;22558;-69
2022/06/24 18:17:18;;;;;;;3.20;2.70;;;;;;;27.12;35.99;98149.23;220510;1270;22534;-69
2022/06/24 18:22:21;;;;;;;4.40;2.90;;;;;;;26.70;36.65;98145.08;220641;1270;22608;-68
2022/06/24 18:27:24;;;;;;;3.40;2.60;;;;;;;26.31;37.41;98140.05;220640;1268;22807;-68
2022/06/24 18:32:27;;;;;;;3.60;3.30;;;;;;;25.94;38.13;98135.16;220953;1270;22594;-68
2022/06/24 18:37:29;;;;;;;5.20;3.50;;;;;;;25.57;38.93;98134.00;220698;1271;22582;-69
2022/06/24 18:42:32;;;;;;;4.00;3.60;;;;;;;25.23;39.55;98127.52;220662;1270;22728;-68
2022/06/24 18:47:34;;;;;;;3.40;3.10;;;;;;;24.91;40.04;98127.79;220408;1270;24330;-69
2022/06/24 18:52:38;;;;;;;4.40;3.00;;;;;;;24.60;40.55;98132.80;220607;1270;25406;-68
2022/06/24 18:57:40;;;;;;;3.40;3.10;;;;;;;24.34;41.07;98136.00;220349;1270;24341;-69
2022/06/24 19:02:56;;;;;;;4.50;3.20;;;;;;;24.11;41.43;98136.46;220224;1270;24222;-69
2022/06/24 19:08:18;;;;;;;3.80;3.10;;;;;;;23.86;41.86;98136.16;220086;1271;22534;-68
2022/06/24 19:13:26;;;;;;;7.90;7.10;;;;;;;23.62;42.44;98134.63;220300;1271;22736;-68
2022/06/24 19:23:50;;;;;;;3.40;2.40;;;;;;;23.22;43.34;98133.52;220317;1270;22785;-69
2022/06/24 19:28:52;;;;;;;3.20;2.70;;;;;;;23.03;43.67;98127.69;220337;1270;22532;-68
2022/06/24 19:33:56;;;;;;;3.80;3.00;;;;;;;22.86;44.34;98128.73;220533;1270;22546;-68
2022/06/24 19:39:01;;;;;;;2.90;2.50;;;;;;;22.68;44.80;98127.83;220591;1270;24383;-68
2022/06/24 19:44:04;;;;;;;6.90;3.40;;;;;;;22.54;45.34;98130.05;220192;1268;22545;-69
2022/06/24 19:49:07;;;;;;;5.60;2.50;;;;;;;22.39;45.71;98130.75;220377;1271;22553;-69
2022/06/24 19:54:22;;;;;;;5.60;2.60;;;;;;;22.25;45.88;98124.13;220483;1271;22530;-69
2022/06/24 19:59:44;;;;;;;11.00;2.60;;;;;;;22.11;46.12;98128.64;220450;1272;25315;-69
2022/06/24 20:10:15;;;;;;;6.30;2.70;;;;;;;21.96;46.70;98129.73;220022;1270;22560;-70
2022/06/24 20:15:25;;;;;;;4.00;2.80;;;;;;;21.93;46.79;98128.30;220089;1270;26162;-69
2022/06/24 20:20:31;;;;;;;4.10;2.70;;;;;;;21.88;46.98;98125.70;220283;1270;24333;-69
2022/06/24 20:25:53;;;;;;;3.90;3.10;;;;;;;21.83;47.01;98122.40;220535;1270;25399;-68
2022/06/24 20:30:56;;;;;;;2.90;2.30;;;;;;;21.75;47.19;98125.92;220453;1270;25333;-68
2022/06/24 20:35:58;;;;;;;16.50;8.60;;;;;;;21.64;47.64;98123.91;220230;1271;25254;-68
2022/06/24 20:41:02;;;;;;;5.40;3.40;;;;;;;21.55;47.88;98122.13;220198;1271;22557;-68
2022/06/24 20:46:05;;;;;;;3.10;2.80;;;;;;;21.46;48.30;98129.65;220254;1270;22557;-68
2022/06/24 20:51:12;;;;;;;5.40;2.50;;;;;;;21.40;48.43;98128.83;220599;1268;22560;-68
2022/06/24 20:56:15;;;;;;;2.60;2.00;;;;;;;21.29;48.71;98130.52;221177;1269;22562;-69
2022/06/24 21:01:18;;;;;;;3.10;2.40;;;;;;;21.16;48.94;98130.55;220049;1273;24202;-67
2022/06/24 21:06:22;;;;;;;3.30;2.30;;;;;;;21.03;49.37;98131.68;220413;1271;22939;-70
2022/06/24 21:17:09;;;;;;;2.80;2.10;;;;;;;20.86;50.23;98144.49;220581;1272;22666;-67
2022/06/24 21:22:11;;;;;;;3.10;2.80;;;;;;;20.78;50.85;98150.94;220099;1271;24407;-68
2022/06/24 21:27:14;;;;;;;4.00;2.70;;;;;;;20.74;51.16;98155.08;220187;1268;22540;-68
2022/06/24 21:32:16;;;;;;;2.50;2.30;;;;;;;20.67;51.22;98153.44;220412;1272;24542;-68
2022/06/24 21:37:19;;;;;;;2.50;2.30;;;;;;;20.60;51.61;98150.31;220552;1271;24342;-70
2022/06/24 21:42:26;;;;;;;3.90;2.40;;;;;;;20.54;51.97;98147.90;220570;1271;24263;-68
2022/06/24 21:47:28;;;;;;;3.80;2.30;;;;;;;20.46;52.34;98146.56;220537;1270;24375;-68
2022/06/24 21:52:32;;;;;;;3.00;2.40;;;;;;;20.35;52.44;98141.14;220658;1268;22688;-68
2022/06/24 21:57:34;;;;;;;3.80;2.50;;;;;;;20.21;52.54;98148.81;220874;1268;22573;-68
2022/06/24 22:02:37;;;;;;;2.60;2.40;;;;;;;20.10;52.65;98149.65;220701;1268;22568;-68
2022/06/24 22:07:53;;;;;;;;;;;;;;;;;;;;;
2022/06/24 22:12:58;;;;;;;2.50;2.30;;;;;;;19.88;53.74;98144.14;220675;1268;25523;-68
2022/06/24 22:18:04;;;;;;;2.90;2.60;;;;;;;19.77;53.80;98146.12;220011;1271;22574;-68
2022/06/24 22:23:31;;;;;;;4.20;2.60;;;;;;;19.68;54.28;98147.06;220246;1273;22815;-68
2022/06/24 22:28:55;;;;;;;2.70;2.20;;;;;;;19.62;54.93;98148.22;220720;1271;22534;-69
2022/06/24 22:34:14;;;;;;;2.60;2.40;;;;;;;19.58;55.14;98151.19;220385;1271;22582;-69
2022/06/24 22:39:20;;;;;;;3.20;2.80;;;;;;;19.55;55.33;98151.92;220130;1271;22573;-68
2022/06/24 22:44:22;;;;;;;5.20;2.30;;;;;;;19.49;55.58;98151.65;220218;1271;24104;-68
2022/06/24 22:49:45;;;;;;;3.90;2.70;;;;;;;19.39;55.70;98150.33;220349;1268;22557;-68
2022/06/24 22:54:47;;;;;;;3.90;2.70;;;;;;;19.27;55.85;98147.41;220398;1268;26373;-68
2022/06/24 22:59:54;;;;;;;3.90;2.80;;;;;;;19.16;56.58;98149.79;220374;1268;22541;-68
2022/06/24 23:05:03;;;;;;;2.60;2.40;;;;;;;19.05;56.89;98150.42;220248;1270;24235;-69
2022/06/24 23:10:14;;;;;;;2.90;2.60;;;;;;;18.95;57.21;98151.04;220220;1268;22690;-70
2022/06/24 23:15:17;;;;;;;3.30;2.70;;;;;;;18.85;57.31;98149.35;220385;1271;22533;-69
2022/06/24 23:20:20;;;;;;;3.40;2.80;;;;;;;18.75;57.41;98147.90;220133;1271;25326;-70
2022/06/24 23:25:36;;;;;;;3.40;3.10;;;;;;;18.71;58.06;98150.70;220304;1273;24233;-67
2022/06/24 23:30:45;;;;;;;3.60;2.50;;;;;;;18.71;58.10;98146.35;220330;1271;22583;-68
2022/06/24 23:35:47;;;;;;;3.80;2.90;;;;;;;18.68;58.13;98150.71;220389;1271;25466;-69
2022/06/24 23:40:50;;;;;;;3.80;3.40;;;;;;;18.63;58.21;98150.92;220222;1268;22624;-69
2022/06/24 23:45:58;;;;;;;3.60;2.70;;;;;;;18.57;58.25;98147.33;219939;1271;25421;-69
2022/06/24 23:56:22;;;;;;;3.90;2.80;;;;;;;18.53;59.02;98144.60;220738;1268;24224;-68
